Terminal Aerodrome Forecast
Issued by NWS Shreveport, LA

Home | Current Version | Previous Version | Text Only | Print | Product List | Glossary On
Versions: 1 2 3 4 5 6 7 8 9 10 11 12 13 14 15 16
000
FTUS44 KSHV 282332
TAFGGG
TAF
KGGG 282332Z 2900/2924 VRB05KT P6SM VCSH SCT045 BKN120 OVC250
     FM290300 VRB03KT P6SM FEW060 SCT150 BKN250
      TEMPO 2910/2913 5SM BR
     FM291300 22006KT P6SM SCT150 SCT250
     FM291600 24008KT P6SM SCT035 SCT250
     FM291800 23008KT P6SM SCT045 SCT250=

USA.gov is the U.S. government's official web portal to all federal, state and local government web resources and services.